Lanark, IL

2:53 AM CDT on September 04, 2015 (GMT -0500)
Carroll County | | Change Station
CLOSE
Current Station
Personal Weather Station
Location: Lanark, IL
Elevation: 879 ft
Nearby Weather Stations

Elev 879 ft 42.10 °N, 89.83 °W | Updated 11 days ago

Partly Cloudy
Partly Cloudy
72 °F
Feels Like 72 °F
N
5
Wind Variable Wind from ENE
Gusts mph

Today
High -- | Low -- °F
--% Chance of Precip.
Yesterday
High -- | Low -- °F
Precip. -- in
6:27 AM 7:28 PM
Waning Gibbous, 62% visible
Pressure 29.95 in
Visibility 7.0 miles
Clouds Clear
Dew Point 71 °F
Humidity 98%
Rainfall in
Snow Depth Not available.
UV 0 out of 12
Pollen 6.50 out of 12
Air Quality Not available.
Flu Activity Not available.
METAR KSFY 040735Z AUTO 06006KT 7SM CLR 23/21 A2995 RMK AO2 T02250211
Pressure 29.95 in
Visibility 7.0 miles
Clouds Clear
Dew Point 71 °F
Humidity 98%
Rainfall in
Snow Depth Not available.
UV 0 out of 12
Pollen 6.50 out of 12
Air Quality Not available.
Flu Activity Not available.
METAR KSFY 040735Z AUTO 06006KT 7SM CLR 23/21 A2995 RMK AO2 T02250211

10-Day Weather Forecast

×

Almanac

Astronomy

Sep. 04, 2015 Rise Set
Actual Time
Civil Twilight
Nautical Twilight
Astronomical Twilight
Moon
Length of Visible Light
Length of Day
Tomorrow will be .
, % of the Moon is Illuminated

Today's Extremes

State Highs State Lows

Community

WunderPhotos

Upload Photos

1,852,132 photos uploaded!

WunderBlogs® & News

Nearby

Air Quality

  Air Quality AQ Index Pollutant
Not available.

Snow Depth

Station Depth Elevation

Earthquake Activity

City Distance Mag. Time & Date
Minimum magnitude displayed is 2.5.

Coastal Water Temperatures

Place Temperature

Stations

Nearby Weather Stations

Station Location Temp. Windchill Dew Point Humidity Wind Precip. Elev Updated Type